Terminal Aerodrome Forecast
Issued by NWS Charleston, WV

Current Version | Previous Version | Graphics & Text | Print | Product List | Glossary On
Versions: 1 2 3 4 5 6 7 8 9 10 11 12 13 14 15 16 17 18 19 20 21
043
FTUS41 KRLX 211128
TAFHTS
TAF
KHTS 211128Z 2112/2212 24006KT P6SM FEW009 SCT022 BKN090
      TEMPO 2112/2114 BKN009
     FM211500 29006KT P6SM BKN015
     FM211700 31007KT P6SM BKN030
     FM211900 31007KT P6SM BKN035
     FM220500 VRB03KT P6SM FEW030
     FM221000 VRB03KT 6SM BR FEW200=

USA.gov is the U.S. government's official web portal to all federal, state and local government web resources and services.